createdAt,value
2023-04-28T00:00:20.935Z,5.57
2023-04-28T00:00:43.693Z,5.68
2023-04-28T00:01:06.520Z,6.45
2023-04-28T00:01:29.400Z,6.40
2023-04-28T00:01:52.264Z,8.02
2023-04-28T00:02:15.264Z,6.57
2023-04-28T00:02:38.121Z,5.63
2023-04-28T00:03:01.263Z,5.88
2023-04-28T00:03:24.586Z,7.07
2023-04-28T00:03:48.825Z,6.82
2023-04-28T00:04:12.085Z,8.52
2023-04-28T00:04:35.426Z,5.65
2023-04-28T00:04:58.622Z,5.85
2023-04-28T00:05:23.966Z,7.63
2023-04-28T00:05:47.831Z,8.52
2023-04-28T00:06:12.014Z,9.02
2023-04-28T00:06:34.753Z,7.13
2023-04-28T00:06:59.192Z,6.35
2023-04-28T00:07:22.054Z,5.10
2023-04-28T00:07:44.926Z,4.82
2023-04-28T00:08:07.844Z,6.07
2023-04-28T00:08:30.676Z,5.10
2023-04-28T00:08:53.524Z,6.03
2023-04-28T00:09:17.032Z,6.93
2023-04-28T00:09:39.811Z,6.70
2023-04-28T00:10:02.622Z,8.27
2023-04-28T00:10:25.776Z,5.88
2023-04-28T00:10:48.501Z,5.57
2023-04-28T00:11:11.311Z,5.40
2023-04-28T00:11:34.331Z,6.13
2023-04-28T00:11:57.135Z,7.05
2023-04-28T00:12:19.897Z,6.38
2023-04-28T00:12:42.714Z,6.10
2023-04-28T00:13:05.552Z,6.90
2023-04-28T00:13:28.346Z,6.35
2023-04-28T00:13:51.906Z,7.32
2023-04-28T00:14:14.898Z,6.43
2023-04-28T00:14:38.316Z,5.85
2023-04-28T00:15:01.216Z,6.80
2023-04-28T00:15:24.139Z,7.20
2023-04-28T00:15:46.966Z,5.70
2023-04-28T00:16:09.774Z,5.93
2023-04-28T00:16:32.726Z,6.43
2023-04-28T00:16:58.022Z,5.60
2023-04-28T00:17:21.432Z,6.80
2023-04-28T00:17:44.516Z,6.55
2023-04-28T00:18:07.721Z,8.00
2023-04-28T00:18:30.704Z,6.53
2023-04-28T00:18:56.751Z,5.22
2023-04-28T00:19:19.606Z,6.45
2023-04-28T00:19:42.425Z,6.47
2023-04-28T00:20:06.911Z,9.20
2023-04-28T00:20:29.582Z,6.00
2023-04-28T00:20:52.333Z,5.78
2023-04-28T00:21:15.065Z,7.25
2023-04-28T00:21:40.349Z,7.60
2023-04-28T00:22:05.366Z,6.75
2023-04-28T00:22:28.186Z,7.35
2023-04-28T00:22:51.102Z,6.78
2023-04-28T00:23:13.834Z,6.10
2023-04-28T00:23:36.555Z,6.18
2023-04-28T00:23:59.291Z,7.60
2023-04-28T00:24:22.186Z,7.88
2023-04-28T00:24:45.018Z,7.25
2023-04-28T00:25:09.204Z,6.70
2023-04-28T00:25:32.028Z,5.90
2023-04-28T00:25:57.482Z,5.55
2023-04-28T00:26:21.025Z,6.15
2023-04-28T00:26:43.764Z,5.47
2023-04-28T00:27:09.250Z,6.88
2023-04-28T00:27:33.478Z,6.03
2023-04-28T00:27:56.384Z,6.30
2023-04-28T00:28:32.798Z,8.15
2023-04-28T00:28:57.005Z,6.80
2023-04-28T00:29:19.866Z,7.88
2023-04-28T00:29:42.656Z,8.63
2023-04-28T00:30:07.749Z,5.70
2023-04-28T00:30:30.955Z,7.20
2023-04-28T00:30:56.522Z,7.95
2023-04-28T00:31:19.338Z,8.18
2023-04-28T00:31:42.201Z,5.95
2023-04-28T00:32:06.441Z,5.88
2023-04-28T00:32:29.646Z,5.70
2023-04-28T00:32:52.692Z,6.18
2023-04-28T00:33:16.029Z,8.27
2023-04-28T00:33:38.816Z,8.82
2023-04-28T00:34:01.710Z,7.35
2023-04-28T00:34:24.635Z,7.18
2023-04-28T00:34:47.381Z,9.15
2023-04-28T00:35:10.419Z,8.38
2023-04-28T00:35:33.251Z,7.85
2023-04-28T00:36:00.878Z,7.80
2023-04-28T00:36:23.643Z,6.85
2023-04-28T00:36:46.362Z,6.32
2023-04-28T00:37:10.794Z,8.27
2023-04-28T00:37:36.878Z,7.60
2023-04-28T00:37:59.691Z,6.15
2023-04-28T00:38:25.568Z,7.68
2023-04-28T00:38:48.431Z,5.28
2023-04-28T00:39:11.369Z,5.80
2023-04-28T00:39:34.232Z,6.18
2023-04-28T00:39:59.236Z,7.30
2023-04-28T00:40:22.454Z,6.22
2023-04-28T00:40:45.298Z,6.68
2023-04-28T00:41:09.777Z,6.40
2023-04-28T00:41:34.821Z,6.60
2023-04-28T00:41:57.963Z,7.13
2023-04-28T00:42:20.847Z,6.07
2023-04-28T00:42:43.706Z,6.18
2023-04-28T00:43:06.508Z,6.18
2023-04-28T00:43:32.000Z,7.20
2023-04-28T00:43:55.193Z,6.90
2023-04-28T00:44:18.165Z,5.93
2023-04-28T00:44:41.791Z,5.60
2023-04-28T00:45:07.400Z,5.93
2023-04-28T00:45:30.223Z,4.85
2023-04-28T00:45:53.097Z,5.38
2023-04-28T00:46:22.216Z,5.53
2023-04-28T00:46:45.836Z,7.53
2023-04-28T00:47:10.274Z,5.50
2023-04-28T00:47:33.432Z,7.13
2023-04-28T00:47:57.013Z,8.25
2023-04-28T00:48:23.922Z,6.35
2023-04-28T00:48:46.818Z,7.57
2023-04-28T00:49:09.716Z,9.65
2023-04-28T00:49:34.384Z,5.97
2023-04-28T00:49:57.430Z,6.38
2023-04-28T00:50:20.424Z,5.88
2023-04-28T00:50:43.449Z,7.47
2023-04-28T00:51:07.103Z,6.72
2023-04-28T00:51:29.954Z,5.65
2023-04-28T00:51:52.740Z,6.25
2023-04-28T00:52:17.044Z,7.75
2023-04-28T00:52:39.961Z,5.82
2023-04-28T00:53:03.866Z,5.85
2023-04-28T00:53:26.650Z,7.20
2023-04-28T00:53:49.338Z,6.30
2023-04-28T00:54:14.265Z,6.22
2023-04-28T00:54:37.993Z,6.47
2023-04-28T00:55:01.029Z,6.38
2023-04-28T00:55:23.904Z,5.95
2023-04-28T00:55:46.688Z,8.27
2023-04-28T00:56:09.670Z,6.93
2023-04-28T00:56:34.617Z,5.50
2023-04-28T00:56:57.397Z,4.80
2023-04-28T00:57:22.585Z,5.70
2023-04-28T00:57:45.827Z,5.10
2023-04-28T00:58:08.600Z,5.03
2023-04-28T00:58:34.503Z,6.03
2023-04-28T00:58:57.406Z,6.65
2023-04-28T00:59:20.187Z,7.20
2023-04-28T00:59:43.074Z,5.78
2023-04-28T01:00:10.166Z,6.20
2023-04-28T01:00:33.096Z,7.25
2023-04-28T01:01:03.590Z,5.10
2023-04-28T01:01:26.517Z,6.43
2023-04-28T01:01:49.574Z,6.55
2023-04-28T01:02:17.688Z,5.65
2023-04-28T01:02:40.644Z,5.15
2023-04-28T01:03:03.602Z,8.45
2023-04-28T01:03:29.217Z,4.50
2023-04-28T01:03:52.557Z,10.77
2023-04-28T01:04:19.500Z,6.45
2023-04-28T01:04:42.894Z,8.75
2023-04-28T01:05:08.476Z,6.50
2023-04-28T01:05:31.240Z,7.47
2023-04-28T01:05:54.094Z,5.20
2023-04-28T01:06:17.147Z,5.72
2023-04-28T01:06:39.926Z,6.85
2023-04-28T01:07:04.837Z,6.80
2023-04-28T01:07:29.198Z,8.20
2023-04-28T01:07:54.422Z,6.85
2023-04-28T01:08:17.171Z,4.95
2023-04-28T01:08:42.145Z,5.72
2023-04-28T01:09:06.433Z,7.88
2023-04-28T01:09:31.427Z,7.25
2023-04-28T01:09:54.315Z,5.13
2023-04-28T01:10:20.160Z,6.75
2023-04-28T01:10:45.294Z,8.30
2023-04-28T01:11:10.444Z,5.85
2023-04-28T01:11:33.215Z,5.78
2023-04-28T01:11:56.065Z,6.57
2023-04-28T01:12:18.918Z,7.93
2023-04-28T01:12:44.104Z,5.35
2023-04-28T01:13:07.385Z,6.80
2023-04-28T01:13:32.342Z,6.85
2023-04-28T01:13:57.664Z,6.65
2023-04-28T01:14:22.854Z,7.50
2023-04-28T01:14:45.616Z,7.07
2023-04-28T01:15:12.318Z,6.10
2023-04-28T01:15:35.096Z,6.45
2023-04-28T01:15:57.935Z,8.73
2023-04-28T01:16:23.237Z,8.90
2023-04-28T01:16:46.082Z,5.78
2023-04-28T01:17:08.969Z,6.13
2023-04-28T01:17:31.774Z,7.20
2023-04-28T01:17:54.648Z,7.45
2023-04-28T01:18:17.484Z,6.20
2023-04-28T01:18:41.813Z,7.13
2023-04-28T01:19:04.548Z,5.68
2023-04-28T01:19:28.054Z,6.95
2023-04-28T01:19:53.213Z,7.60
2023-04-28T01:20:16.213Z,5.70
2023-04-28T01:20:39.215Z,6.63
2023-04-28T01:21:04.114Z,8.50
2023-04-28T01:21:29.484Z,7.22
2023-04-28T01:21:52.353Z,7.60
2023-04-28T01:22:16.567Z,7.53
2023-04-28T01:22:40.900Z,9.73
2023-04-28T01:23:03.658Z,4.72
2023-04-28T01:23:26.558Z,5.43
2023-04-28T01:23:53.151Z,5.75
2023-04-28T01:24:16.753Z,7.30
2023-04-28T01:24:42.879Z,6.28
2023-04-28T01:25:09.232Z,7.88
2023-04-28T01:25:32.030Z,7.18
2023-04-28T01:25:59.593Z,7.30
2023-04-28T01:26:22.959Z,6.47
2023-04-28T01:26:46.494Z,6.80
2023-04-28T01:27:09.299Z,6.65
2023-04-28T01:27:34.298Z,7.60
2023-04-28T01:27:57.040Z,7.25
2023-04-28T01:28:19.888Z,6.25
2023-04-28T01:28:42.665Z,7.38
2023-04-28T01:29:05.571Z,6.57
2023-04-28T01:29:30.783Z,7.65
2023-04-28T01:29:55.988Z,7.38
2023-04-28T01:30:18.955Z,5.70
2023-04-28T01:30:44.112Z,6.53
2023-04-28T01:31:06.984Z,6.93
2023-04-28T01:31:31.350Z,6.40
2023-04-28T01:31:57.263Z,6.22
2023-04-28T01:32:20.235Z,6.80
2023-04-28T01:32:43.222Z,7.47
2023-04-28T01:33:08.481Z,8.32
2023-04-28T01:33:33.860Z,7.82
2023-04-28T01:33:59.175Z,6.65
2023-04-28T01:34:21.990Z,6.40
2023-04-28T01:34:46.996Z,6.30
2023-04-28T01:35:10.141Z,6.55
2023-04-28T01:35:33.006Z,6.72
2023-04-28T01:35:59.004Z,8.90
2023-04-28T01:36:24.049Z,6.30
2023-04-28T01:36:46.962Z,6.90
2023-04-28T01:37:11.898Z,6.70
2023-04-28T01:37:35.848Z,6.10
2023-04-28T01:38:00.819Z,4.80
2023-04-28T01:38:23.552Z,5.40
2023-04-28T01:38:46.415Z,5.63
2023-04-28T01:39:10.900Z,5.50
2023-04-28T01:39:35.332Z,7.03
2023-04-28T01:39:58.135Z,7.75
2023-04-28T01:40:22.987Z,6.18
2023-04-28T01:40:45.824Z,5.72
2023-04-28T01:41:08.647Z,8.25
2023-04-28T01:41:34.695Z,7.78
2023-04-28T01:41:57.613Z,6.18
2023-04-28T01:42:22.683Z,7.43
2023-04-28T01:42:47.852Z,7.13
2023-04-28T01:43:10.629Z,6.53
2023-04-28T01:43:33.364Z,8.40
2023-04-28T01:43:56.206Z,6.82
2023-04-28T01:44:21.122Z,5.78
2023-04-28T01:44:43.915Z,5.70
2023-04-28T01:45:08.846Z,6.57
2023-04-28T01:45:31.648Z,5.70
2023-04-28T01:45:56.975Z,7.45
2023-04-28T01:46:19.885Z,7.68
2023-04-28T01:46:45.269Z,7.93
2023-04-28T01:47:10.537Z,7.60
2023-04-28T01:47:35.857Z,8.27
2023-04-28T01:47:58.658Z,8.13
2023-04-28T01:48:23.814Z,6.80
2023-04-28T01:48:49.078Z,6.60
2023-04-28T01:49:14.283Z,7.15
2023-04-28T01:49:40.056Z,8.70
2023-04-28T01:50:02.862Z,8.18
2023-04-28T01:50:25.851Z,8.00
2023-04-28T01:50:48.591Z,9.52
2023-04-28T01:51:13.554Z,7.15
2023-04-28T01:51:36.283Z,7.60
2023-04-28T01:51:59.114Z,7.75
2023-04-28T01:52:24.258Z,7.00
2023-04-28T01:52:47.039Z,6.82
2023-04-28T01:53:09.930Z,7.88
2023-04-28T01:53:32.696Z,6.78
2023-04-28T01:53:57.859Z,5.80
2023-04-28T01:54:22.074Z,6.07
2023-04-28T01:54:47.174Z,7.28
2023-04-28T01:55:10.181Z,6.30
2023-04-28T01:55:32.976Z,6.47
2023-04-28T01:55:56.799Z,5.28
2023-04-28T01:56:21.692Z,5.63
2023-04-28T01:56:44.434Z,6.38
2023-04-28T01:57:10.113Z,8.98
2023-04-28T01:57:35.297Z,6.72
2023-04-28T01:57:58.591Z,7.90
2023-04-28T01:58:22.041Z,10.05
2023-04-28T01:58:47.851Z,7.70
2023-04-28T01:59:10.612Z,6.88
2023-04-28T01:59:36.354Z,7.38
2023-04-28T02:00:00.570Z,6.35
2023-04-28T02:00:23.402Z,7.70
2023-04-28T02:00:46.627Z,5.90
2023-04-28T02:01:09.407Z,8.52
2023-04-28T02:01:32.273Z,9.68
2023-04-28T02:01:55.398Z,9.80
2023-04-28T02:02:18.299Z,9.75
2023-04-28T02:02:43.589Z,9.02
2023-04-28T02:03:06.981Z,8.30
2023-04-28T02:03:29.872Z,8.38
2023-04-28T02:03:55.449Z,7.95
2023-04-28T02:04:18.942Z,8.20
2023-04-28T02:04:42.263Z,7.27
2023-04-28T02:05:07.961Z,6.53
2023-04-28T02:05:30.728Z,8.52
2023-04-28T02:05:53.553Z,9.25
2023-04-28T02:06:16.319Z,8.70
2023-04-28T02:06:39.058Z,7.80
2023-04-28T02:07:01.874Z,7.57
2023-04-28T02:07:27.125Z,8.35
2023-04-28T02:07:49.966Z,8.18
2023-04-28T02:08:12.727Z,7.07
2023-04-28T02:08:35.720Z,7.70
2023-04-28T02:09:00.657Z,7.85
2023-04-28T02:09:27.984Z,7.53
2023-04-28T02:09:50.846Z,7.68
2023-04-28T02:10:13.550Z,9.57
2023-04-28T02:10:36.441Z,7.25
2023-04-28T02:11:02.267Z,6.75
2023-04-28T02:11:25.047Z,7.60
2023-04-28T02:11:50.016Z,6.88
2023-04-28T02:12:15.238Z,8.07
2023-04-28T02:12:40.543Z,6.90
2023-04-28T02:13:03.268Z,7.18
2023-04-28T02:13:26.109Z,8.25
2023-04-28T02:13:48.911Z,7.28
2023-04-28T02:14:11.723Z,7.53
2023-04-28T02:14:34.509Z,8.18
2023-04-28T02:14:57.591Z,8.02
2023-04-28T02:15:20.271Z,11.53
2023-04-28T02:15:45.280Z,8.75
2023-04-28T02:16:08.281Z,7.93
2023-04-28T02:16:33.998Z,7.88
2023-04-28T02:16:57.247Z,7.23
2023-04-28T02:17:20.187Z,7.80
2023-04-28T02:17:45.296Z,7.53
2023-04-28T02:18:10.470Z,8.13
2023-04-28T02:18:33.300Z,5.82
2023-04-28T02:19:00.921Z,6.80
2023-04-28T02:19:23.705Z,7.97
2023-04-28T02:19:48.989Z,7.25
2023-04-28T02:20:14.644Z,7.65
2023-04-28T02:20:39.624Z,9.50
2023-04-28T02:21:10.283Z,8.63
2023-04-28T02:21:35.236Z,7.93
2023-04-28T02:21:58.161Z,6.80
2023-04-28T02:22:21.480Z,6.78
2023-04-28T02:22:44.176Z,7.78
2023-04-28T02:23:06.996Z,8.32
2023-04-28T02:23:29.915Z,6.82
2023-04-28T02:23:52.786Z,8.20
2023-04-28T02:24:18.440Z,7.15
2023-04-28T02:24:45.572Z,6.97
2023-04-28T02:25:09.524Z,8.02
2023-04-28T02:25:32.421Z,8.90
2023-04-28T02:26:01.589Z,7.32
2023-04-28T02:26:24.828Z,9.13
2023-04-28T02:26:47.939Z,10.55
2023-04-28T02:27:13.622Z,7.28
2023-04-28T02:27:37.214Z,9.00
2023-04-28T02:28:00.031Z,9.80
2023-04-28T02:28:22.956Z,9.27
2023-04-28T02:28:48.112Z,8.73
2023-04-28T02:29:13.414Z,9.27
2023-04-28T02:29:36.348Z,6.57
2023-04-28T02:29:59.189Z,6.68
2023-04-28T02:30:25.170Z,7.60
2023-04-28T02:30:47.941Z,7.45
2023-04-28T02:31:14.228Z,6.93
2023-04-28T02:31:37.139Z,7.10
2023-04-28T02:32:04.981Z,7.63
2023-04-28T02:32:27.782Z,6.28
2023-04-28T02:32:50.850Z,6.45
2023-04-28T02:33:15.796Z,8.20
2023-04-28T02:33:38.750Z,7.97
2023-04-28T02:34:04.337Z,5.50
2023-04-28T02:34:30.136Z,6.60
2023-04-28T02:34:54.916Z,7.70
2023-04-28T02:35:19.859Z,9.02
2023-04-28T02:35:43.350Z,7.45
2023-04-28T02:36:09.266Z,7.45
2023-04-28T02:36:34.458Z,6.30
2023-04-28T02:36:57.224Z,7.03
2023-04-28T02:37:23.160Z,7.25
2023-04-28T02:37:46.598Z,7.10
2023-04-28T02:38:09.896Z,8.32
2023-04-28T02:38:32.904Z,6.70
2023-04-28T02:38:56.207Z,7.03
2023-04-28T02:39:22.078Z,7.97
2023-04-28T02:39:46.578Z,9.32
2023-04-28T02:40:10.234Z,9.07
2023-04-28T02:40:33.152Z,6.43
2023-04-28T02:41:01.197Z,8.85
2023-04-28T02:41:26.461Z,8.85
2023-04-28T02:41:49.307Z,7.47
2023-04-28T02:42:14.647Z,7.20
2023-04-28T02:42:37.687Z,7.25
2023-04-28T02:43:00.651Z,6.63
2023-04-28T02:43:26.625Z,7.55
2023-04-28T02:43:49.456Z,6.97
2023-04-28T02:44:12.424Z,6.55
2023-04-28T02:44:35.295Z,6.10
2023-04-28T02:45:00.228Z,7.20
2023-04-28T02:45:23.056Z,8.13
2023-04-28T02:45:45.825Z,7.70
2023-04-28T02:46:08.726Z,6.40
2023-04-28T02:46:31.798Z,7.47
2023-04-28T02:47:00.714Z,8.95
2023-04-28T02:47:23.584Z,9.95
2023-04-28T02:47:48.853Z,6.30
2023-04-28T02:48:12.278Z,6.45
2023-04-28T02:48:37.604Z,7.63
2023-04-28T02:49:02.641Z,8.70
2023-04-28T02:49:25.603Z,6.40
2023-04-28T02:49:50.586Z,6.68
2023-04-28T02:50:13.433Z,8.55
2023-04-28T02:50:36.605Z,7.00
2023-04-28T02:50:59.535Z,7.75
2023-04-28T02:51:24.823Z,7.03
2023-04-28T02:51:47.681Z,6.70
2023-04-28T02:52:12.761Z,7.40
2023-04-28T02:52:36.070Z,7.82
2023-04-28T02:52:58.946Z,7.60
2023-04-28T02:53:24.604Z,8.60
2023-04-28T02:53:47.475Z,6.60
2023-04-28T02:54:10.409Z,8.65
2023-04-28T02:54:35.368Z,5.95
2023-04-28T02:54:59.682Z,6.35
2023-04-28T02:55:24.880Z,8.10
2023-04-28T02:55:47.735Z,6.28
2023-04-28T02:56:12.849Z,6.05
2023-04-28T02:56:36.047Z,6.38
2023-04-28T02:56:58.921Z,6.40
2023-04-28T02:57:23.930Z,7.75
2023-04-28T02:57:46.751Z,5.90
2023-04-28T02:58:11.983Z,6.80
2023-04-28T02:58:37.253Z,6.78
2023-04-28T02:59:02.479Z,7.50
2023-04-28T02:59:25.730Z,4.95
2023-04-28T02:59:48.416Z,6.60
2023-04-28T03:00:15.225Z,7.97
2023-04-28T03:00:37.988Z,7.82
2023-04-28T03:01:01.416Z,10.55
2023-04-28T03:01:26.713Z,9.23
2023-04-28T03:01:49.936Z,9.60
2023-04-28T03:02:15.962Z,8.02
2023-04-28T03:02:38.967Z,6.13
2023-04-28T03:03:04.594Z,6.03
2023-04-28T03:03:27.747Z,9.02
2023-04-28T03:03:51.049Z,6.20
2023-04-28T03:04:17.009Z,8.55
2023-04-28T03:04:40.207Z,9.10
2023-04-28T03:05:03.112Z,8.68
2023-04-28T03:05:28.327Z,7.97
2023-04-28T03:05:53.516Z,6.55
2023-04-28T03:06:16.569Z,5.50
2023-04-28T03:06:42.348Z,6.72
2023-04-28T03:07:05.138Z,6.97
2023-04-28T03:07:28.386Z,8.38
2023-04-28T03:07:53.370Z,7.72
2023-04-28T03:08:18.625Z,6.55
2023-04-28T03:08:41.552Z,6.57
2023-04-28T03:09:06.894Z,7.70
2023-04-28T03:09:29.676Z,7.90
2023-04-28T03:09:52.526Z,8.68
2023-04-28T03:10:16.884Z,8.02
2023-04-28T03:10:42.841Z,6.85
2023-04-28T03:11:06.191Z,8.20
2023-04-28T03:11:31.542Z,7.97
2023-04-28T03:11:54.492Z,7.50
2023-04-28T03:12:19.730Z,5.75
2023-04-28T03:12:45.064Z,6.95
2023-04-28T03:13:07.955Z,6.63
2023-04-28T03:13:33.451Z,7.05
2023-04-28T03:13:58.644Z,5.85
2023-04-28T03:14:24.096Z,7.13
2023-04-28T03:14:46.967Z,8.25
2023-04-28T03:15:14.087Z,6.78
2023-04-28T03:15:37.221Z,7.55
2023-04-28T03:16:03.453Z,8.10
2023-04-28T03:16:26.569Z,7.18
2023-04-28T03:16:49.578Z,7.10
2023-04-28T03:17:14.480Z,7.65
2023-04-28T03:17:39.188Z,7.30
2023-04-28T03:18:02.175Z,7.57
2023-04-28T03:18:25.042Z,6.50
2023-04-28T03:18:47.812Z,6.35
2023-04-28T03:19:10.668Z,6.75
2023-04-28T03:19:33.541Z,6.82
2023-04-28T03:19:56.421Z,6.82
2023-04-28T03:20:19.162Z,7.13
2023-04-28T03:20:42.415Z,7.63
2023-04-28T03:21:05.268Z,6.60
2023-04-28T03:21:29.152Z,7.22
2023-04-28T03:21:51.975Z,8.38
2023-04-28T03:22:16.912Z,5.63
2023-04-28T03:22:39.692Z,7.32
2023-04-28T03:23:02.800Z,7.72
2023-04-28T03:23:25.927Z,7.82
2023-04-28T03:23:49.753Z,7.78
2023-04-28T03:24:12.700Z,8.27
2023-04-28T03:24:35.707Z,6.78
2023-04-28T03:24:58.563Z,6.72
2023-04-28T03:25:22.746Z,6.57
2023-04-28T03:25:45.718Z,6.72
2023-04-28T03:26:08.506Z,6.57
2023-04-28T03:26:33.450Z,6.45
2023-04-28T03:26:57.153Z,6.55
2023-04-28T03:27:19.896Z,8.45
2023-04-28T03:27:42.674Z,7.85
2023-04-28T03:28:06.329Z,7.03
2023-04-28T03:28:29.677Z,10.15
2023-04-28T03:28:53.296Z,9.05
2023-04-28T03:29:16.371Z,8.95
2023-04-28T03:29:39.160Z,9.98
2023-04-28T03:30:02.088Z,8.90
2023-04-28T03:30:24.932Z,9.02
2023-04-28T03:30:47.695Z,9.23
2023-04-28T03:31:10.787Z,9.90
2023-04-28T03:31:33.671Z,7.05
2023-04-28T03:31:56.663Z,6.13
2023-04-28T03:32:20.036Z,9.35
2023-04-28T03:32:42.948Z,9.37
2023-04-28T03:33:05.657Z,7.45
2023-04-28T03:33:28.648Z,7.18
2023-04-28T03:33:51.632Z,7.47
2023-04-28T03:34:14.705Z,9.15
2023-04-28T03:34:37.896Z,9.55
2023-04-28T03:35:00.692Z,8.52
2023-04-28T03:35:23.555Z,8.63
2023-04-28T03:35:46.655Z,9.48
2023-04-28T03:36:10.215Z,7.13
2023-04-28T03:36:33.452Z,5.38
2023-04-28T03:36:58.452Z,6.72
2023-04-28T03:37:21.173Z,9.77
2023-04-28T03:37:44.178Z,8.80
2023-04-28T03:38:07.258Z,6.80
2023-04-28T03:38:30.097Z,8.60
2023-04-28T03:38:53.000Z,7.63
2023-04-28T03:39:16.090Z,6.45
2023-04-28T03:39:38.906Z,9.05
2023-04-28T03:40:01.780Z,7.35
2023-04-28T03:40:26.352Z,8.82
2023-04-28T03:40:49.189Z,7.57
2023-04-28T03:41:12.395Z,8.07
2023-04-28T03:41:35.269Z,9.80
2023-04-28T03:41:58.285Z,8.57
2023-04-28T03:42:21.061Z,6.90
2023-04-28T03:42:46.246Z,7.13
2023-04-28T03:43:09.083Z,10.43
2023-04-28T03:43:33.347Z,8.95
2023-04-28T03:43:56.955Z,7.72
2023-04-28T03:44:19.890Z,8.02
2023-04-28T03:44:42.786Z,10.02
2023-04-28T03:45:06.470Z,11.00
2023-04-28T03:45:29.814Z,8.00
2023-04-28T03:45:52.824Z,8.10
2023-04-28T03:46:15.680Z,11.20
2023-04-28T03:46:40.895Z,8.63
2023-04-28T03:47:03.660Z,9.55
2023-04-28T03:47:29.056Z,9.10
2023-04-28T03:47:51.943Z,7.30
2023-04-28T03:48:14.793Z,9.25
2023-04-28T03:48:37.668Z,6.72
2023-04-28T03:49:02.338Z,6.78
2023-04-28T03:49:25.245Z,6.53
2023-04-28T03:49:48.072Z,9.85
2023-04-28T03:50:11.310Z,7.93
2023-04-28T03:50:34.190Z,8.75
2023-04-28T03:50:57.005Z,9.07
2023-04-28T03:51:19.803Z,9.60
2023-04-28T03:51:42.687Z,10.48
2023-04-28T03:52:05.478Z,8.90
2023-04-28T03:52:31.947Z,7.65
2023-04-28T03:52:54.810Z,7.60
2023-04-28T03:53:17.682Z,7.30
2023-04-28T03:53:40.646Z,7.13
2023-04-28T03:54:03.480Z,9.40
2023-04-28T03:54:26.402Z,8.35
2023-04-28T03:54:49.309Z,7.70
2023-04-28T03:55:12.169Z,6.35
2023-04-28T03:55:36.522Z,7.27
2023-04-28T03:55:59.323Z,8.25
2023-04-28T03:56:22.292Z,7.90
2023-04-28T03:56:45.073Z,7.70
2023-04-28T03:57:08.007Z,7.97
2023-04-28T03:57:30.898Z,9.40
2023-04-28T03:57:53.718Z,7.68
2023-04-28T03:58:16.852Z,7.05
2023-04-28T03:58:39.698Z,9.50
2023-04-28T03:59:04.880Z,10.25
2023-04-28T03:59:27.904Z,8.32
2023-04-28T03:59:51.630Z,7.43
2023-04-28T04:00:15.021Z,7.75
2023-04-28T04:00:37.938Z,9.68
2023-04-28T04:01:01.341Z,11.07
2023-04-28T04:01:25.480Z,10.23
2023-04-28T04:01:49.050Z,8.90
2023-04-28T04:02:14.397Z,7.80
2023-04-28T04:02:37.392Z,7.82
2023-04-28T04:03:01.126Z,7.50
2023-04-28T04:03:27.251Z,9.00
2023-04-28T04:03:50.473Z,7.25
2023-04-28T04:04:14.346Z,6.60
2023-04-28T04:04:37.821Z,7.72
2023-04-28T04:05:01.120Z,8.70
2023-04-28T04:05:24.311Z,8.00
2023-04-28T04:05:47.686Z,7.03
2023-04-28T04:06:10.842Z,9.30
2023-04-28T04:06:34.166Z,9.60
2023-04-28T04:06:56.951Z,7.78
2023-04-28T04:07:19.702Z,9.02
2023-04-28T04:07:42.539Z,7.95
2023-04-28T04:08:06.300Z,6.80
2023-04-28T04:08:29.073Z,9.13
2023-04-28T04:08:51.826Z,7.70
2023-04-28T04:09:14.694Z,8.25
2023-04-28T04:09:37.570Z,7.07
2023-04-28T04:10:01.413Z,7.85
2023-04-28T04:10:26.287Z,9.27
2023-04-28T04:10:50.757Z,7.93
2023-04-28T04:11:13.528Z,9.35
2023-04-28T04:11:36.224Z,8.02
2023-04-28T04:11:58.949Z,8.52
2023-04-28T04:12:22.278Z,7.95
2023-04-28T04:12:45.147Z,9.52
2023-04-28T04:13:08.072Z,7.72
2023-04-28T04:13:30.931Z,8.30
2023-04-28T04:13:53.781Z,9.05
2023-04-28T04:14:16.973Z,7.03
2023-04-28T04:14:40.080Z,8.68
2023-04-28T04:15:03.767Z,8.38
2023-04-28T04:15:26.629Z,8.25
2023-04-28T04:15:50.703Z,8.50
2023-04-28T04:16:16.169Z,8.30
2023-04-28T04:16:39.737Z,9.93
2023-04-28T04:17:02.609Z,8.23
2023-04-28T04:17:28.017Z,8.88
2023-04-28T04:17:50.972Z,7.00
2023-04-28T04:18:15.278Z,9.25
2023-04-28T04:18:38.067Z,9.52
2023-04-28T04:19:00.943Z,8.05
2023-04-28T04:19:26.663Z,7.25
2023-04-28T04:19:49.715Z,6.78
2023-04-28T04:20:12.977Z,9.65
2023-04-28T04:20:35.827Z,9.40
2023-04-28T04:20:59.186Z,9.73
2023-04-28T04:21:22.128Z,9.07
2023-04-28T04:21:44.913Z,7.65
2023-04-28T04:22:07.690Z,8.88
2023-04-28T04:22:30.549Z,6.53
2023-04-28T04:22:54.489Z,8.25
2023-04-28T04:23:17.320Z,8.88
2023-04-28T04:23:40.044Z,9.25
2023-04-28T04:24:02.809Z,7.72
2023-04-28T04:24:27.724Z,7.22
2023-04-28T04:24:51.398Z,9.77
2023-04-28T04:25:17.332Z,7.60
2023-04-28T04:25:40.146Z,6.78
2023-04-28T04:26:04.378Z,7.07
2023-04-28T04:26:27.095Z,7.15
2023-04-28T04:26:49.949Z,6.95
2023-04-28T04:27:12.782Z,7.43
2023-04-28T04:27:35.528Z,6.47
2023-04-28T04:28:00.710Z,8.45
2023-04-28T04:28:23.550Z,9.77
2023-04-28T04:28:46.382Z,8.93
2023-04-28T04:29:09.308Z,8.88
2023-04-28T04:29:32.177Z,10.90
2023-04-28T04:29:54.995Z,8.60
2023-04-28T04:30:17.889Z,8.85
2023-04-28T04:30:40.595Z,10.48
2023-04-28T04:31:03.620Z,9.73
2023-04-28T04:31:27.068Z,7.47
2023-04-28T04:31:49.949Z,9.25
2023-04-28T04:32:13.311Z,9.70
2023-04-28T04:32:36.138Z,8.35
2023-04-28T04:33:01.528Z,6.00
2023-04-28T04:33:24.367Z,9.00
2023-04-28T04:33:47.243Z,9.43
2023-04-28T04:34:12.281Z,10.32
2023-04-28T04:34:35.078Z,9.43
2023-04-28T04:34:57.823Z,9.32
2023-04-28T04:35:20.689Z,8.15
2023-04-28T04:35:45.789Z,9.75
2023-04-28T04:36:09.061Z,10.10
2023-04-28T04:36:33.132Z,7.75
2023-04-28T04:36:58.112Z,9.10
2023-04-28T04:37:20.958Z,8.20
2023-04-28T04:37:44.190Z,7.70
2023-04-28T04:38:09.221Z,8.65
2023-04-28T04:38:32.003Z,9.77
2023-04-28T04:38:57.254Z,7.63
2023-04-28T04:39:20.086Z,10.90
2023-04-28T04:39:42.841Z,10.00
2023-04-28T04:40:09.605Z,10.25
2023-04-28T04:40:32.484Z,8.45
2023-04-28T04:40:55.262Z,10.13
2023-04-28T04:41:23.115Z,10.25
2023-04-28T04:41:45.942Z,9.30
2023-04-28T04:42:23.378Z,9.52
2023-04-28T04:42:48.107Z,7.32
2023-04-28T04:43:11.021Z,12.40
2023-04-28T04:43:33.785Z,10.18
2023-04-28T04:43:56.648Z,9.57
2023-04-28T04:44:20.069Z,10.73
2023-04-28T04:44:43.103Z,10.65
2023-04-28T04:45:08.066Z,10.52
2023-04-28T04:45:31.138Z,14.52
2023-04-28T04:45:54.471Z,13.93
2023-04-28T04:46:17.338Z,11.95
2023-04-28T04:46:40.281Z,13.05
2023-04-28T04:47:03.071Z,12.63
2023-04-28T04:47:25.894Z,13.45
2023-04-28T04:47:48.746Z,10.10
2023-04-28T04:48:11.744Z,10.88
2023-04-28T04:48:34.880Z,10.80
2023-04-28T04:48:57.837Z,15.90
2023-04-28T04:49:20.567Z,8.85
2023-04-28T04:49:46.081Z,15.38
2023-04-28T04:50:12.010Z,12.52
2023-04-28T04:50:34.902Z,12.10
2023-04-28T04:50:57.700Z,13.30
2023-04-28T04:51:20.517Z,13.48
2023-04-28T04:51:43.434Z,11.40
2023-04-28T04:52:07.160Z,15.20
2023-04-28T04:52:29.905Z,14.77
2023-04-28T04:52:54.648Z,12.38
2023-04-28T04:53:17.568Z,13.25
2023-04-28T04:53:40.344Z,10.48
2023-04-28T04:54:03.138Z,11.10
2023-04-28T04:54:26.091Z,10.88
2023-04-28T04:54:48.908Z,11.10
2023-04-28T04:55:14.136Z,11.68
2023-04-28T04:55:39.314Z,9.20
2023-04-28T04:56:02.876Z,10.25
2023-04-28T04:56:27.161Z,10.55
2023-04-28T04:56:49.850Z,11.45
2023-04-28T04:57:13.500Z,11.45
2023-04-28T04:57:36.199Z,12.82
2023-04-28T04:57:59.114Z,12.38
2023-04-28T04:58:21.785Z,13.73
2023-04-28T04:58:45.014Z,16.65
2023-04-28T04:59:10.460Z,11.43
2023-04-28T04:59:33.300Z,12.63
2023-04-28T04:59:56.178Z,13.27
2023-04-28T05:00:20.374Z,12.85
2023-04-28T05:00:43.450Z,11.70
2023-04-28T05:01:06.241Z,10.20
2023-04-28T05:01:28.979Z,12.85
2023-04-28T05:01:54.204Z,10.43
2023-04-28T05:02:17.409Z,10.50
2023-04-28T05:02:40.843Z,10.10
2023-04-28T05:03:06.389Z,9.40
2023-04-28T05:03:29.719Z,9.10
2023-04-28T05:03:53.059Z,10.63
2023-04-28T05:04:16.323Z,13.65
2023-04-28T05:04:39.488Z,13.05
2023-04-28T05:05:16.689Z,12.40
2023-04-28T05:05:46.329Z,11.98
2023-04-28T05:06:09.230Z,8.38
2023-04-28T05:06:31.956Z,8.05
2023-04-28T05:06:54.789Z,9.73
2023-04-28T05:07:17.642Z,12.98
2023-04-28T05:07:40.513Z,8.95
2023-04-28T05:08:03.840Z,9.55
2023-04-28T05:08:26.822Z,11.20
2023-04-28T05:08:51.714Z,9.63
2023-04-28T05:09:14.406Z,7.50
2023-04-28T05:09:37.169Z,9.38
2023-04-28T05:09:59.971Z,10.13
2023-04-28T05:10:22.786Z,9.93
2023-04-28T05:10:45.631Z,7.85
2023-04-28T05:11:10.755Z,8.50
2023-04-28T05:11:34.975Z,9.98
2023-04-28T05:11:57.992Z,15.18
2023-04-28T05:12:22.967Z,9.90
2023-04-28T05:12:48.341Z,12.15
2023-04-28T05:13:11.909Z,11.52
2023-04-28T05:13:34.738Z,10.57
2023-04-28T05:13:57.598Z,12.48
2023-04-28T05:14:20.311Z,13.48
2023-04-28T05:14:45.538Z,9.82
2023-04-28T05:15:09.341Z,11.77
2023-04-28T05:15:32.179Z,10.25